sensor_id;sensor_type;location;lat;lon;timestamp;temperature;humidity
7564;DHT22;3823;53.586;10.040;2023-01-30T00:00:54;4.10;1.00
7564;DHT22;3823;53.586;10.040;2023-01-30T00:03:21;4.10;1.00
7564;DHT22;3823;53.586;10.040;2023-01-30T00:05:47;4.10;1.00
7564;DHT22;3823;53.586;10.040;2023-01-30T00:08:13;4.10;1.00
7564;DHT22;3823;53.586;10.040;2023-01-30T00:10:39;4.20;1.00
7564;DHT22;3823;53.586;10.040;2023-01-30T00:13:05;4.10;1.00
7564;DHT22;3823;53.586;10.040;2023-01-30T00:15:30;4.20;1.00
7564;DHT22;3823;53.586;10.040;2023-01-30T00:17:56;4.20;1.00
7564;DHT22;3823;53.586;10.040;2023-01-30T00:20:21;4.20;1.00
7564;DHT22;3823;53.586;10.040;2023-01-30T00:22:47;4.30;1.00
7564;DHT22;3823;53.586;10.040;2023-01-30T00:25:13;4.30;1.00
7564;DHT22;3823;53.586;10.040;2023-01-30T00:27:38;4.20;1.00
7564;DHT22;3823;53.586;10.040;2023-01-30T00:30:04;4.30;1.00
7564;DHT22;3823;53.586;10.040;2023-01-30T00:32:31;4.30;1.00
7564;DHT22;3823;53.586;10.040;2023-01-30T00:34:57;4.40;1.00
7564;DHT22;3823;53.586;10.040;2023-01-30T00:37:23;4.40;1.00
7564;DHT22;3823;53.586;10.040;2023-01-30T00:39:49;4.30;1.00
7564;DHT22;3823;53.586;10.040;2023-01-30T00:42:15;4.40;1.00
7564;DHT22;3823;53.586;10.040;2023-01-30T00:44:59;4.40;1.00
7564;DHT22;3823;53.586;10.040;2023-01-30T00:47:43;4.40;1.00
7564;DHT22;3823;53.586;10.040;2023-01-30T00:50:09;4.50;1.00
7564;DHT22;3823;53.586;10.040;2023-01-30T00:52:35;4.50;1.00
7564;DHT22;3823;53.586;10.040;2023-01-30T00:55:01;4.50;1.00
7564;DHT22;3823;53.586;10.040;2023-01-30T00:57:26;4.50;1.00
7564;DHT22;3823;53.586;10.040;2023-01-30T00:59:52;4.50;1.00
7564;DHT22;3823;53.586;10.040;2023-01-30T01:02:19;4.60;1.00
7564;DHT22;3823;53.586;10.040;2023-01-30T01:04:44;4.60;1.00
7564;DHT22;3823;53.586;10.040;2023-01-30T01:07:11;4.60;1.00
7564;DHT22;3823;53.586;10.040;2023-01-30T01:09:37;4.60;1.00
7564;DHT22;3823;53.586;10.040;2023-01-30T01:12:03;4.70;1.00
7564;DHT22;3823;53.586;10.040;2023-01-30T01:14:29;4.70;1.00
7564;DHT22;3823;53.586;10.040;2023-01-30T01:16:55;4.70;1.00
7564;DHT22;3823;53.586;10.040;2023-01-30T01:19:21;4.70;1.00
7564;DHT22;3823;53.586;10.040;2023-01-30T01:21:46;4.70;1.00
7564;DHT22;3823;53.586;10.040;2023-01-30T01:24:14;4.80;1.00
7564;DHT22;3823;53.586;10.040;2023-01-30T01:26:40;4.80;1.00
7564;DHT22;3823;53.586;10.040;2023-01-30T01:29:07;4.80;1.00
7564;DHT22;3823;53.586;10.040;2023-01-30T01:31:35;4.80;1.00
7564;DHT22;3823;53.586;10.040;2023-01-30T01:34:01;4.70;1.00
7564;DHT22;3823;53.586;10.040;2023-01-30T01:36:26;4.80;1.00
7564;DHT22;3823;53.586;10.040;2023-01-30T01:38:52;4.80;1.00
7564;DHT22;3823;53.586;10.040;2023-01-30T01:41:17;4.80;1.00
7564;DHT22;3823;53.586;10.040;2023-01-30T01:46:56;4.80;1.00
7564;DHT22;3823;53.586;10.040;2023-01-30T01:49:32;4.90;1.00
7564;DHT22;3823;53.586;10.040;2023-01-30T01:52:17;4.80;1.00
7564;DHT22;3823;53.586;10.040;2023-01-30T01:54:44;4.80;1.00
7564;DHT22;3823;53.586;10.040;2023-01-30T01:57:21;4.80;1.00
7564;DHT22;3823;53.586;10.040;2023-01-30T02:00:02;4.90;1.00
7564;DHT22;3823;53.586;10.040;2023-01-30T02:02:29;4.90;1.00
7564;DHT22;3823;53.586;10.040;2023-01-30T02:04:57;4.90;1.00
7564;DHT22;3823;53.586;10.040;2023-01-30T02:10:00;4.90;1.00
7564;DHT22;3823;53.586;10.040;2023-01-30T02:12:26;5.00;1.00
7564;DHT22;3823;53.586;10.040;2023-01-30T02:14:53;5.00;1.00
7564;DHT22;3823;53.586;10.040;2023-01-30T02:17:22;5.00;1.00
7564;DHT22;3823;53.586;10.040;2023-01-30T02:20:39;5.00;1.00
7564;DHT22;3823;53.586;10.040;2023-01-30T02:22:56;5.00;1.00
7564;DHT22;3823;53.586;10.040;2023-01-30T02:25:45;5.00;1.00
7564;DHT22;3823;53.586;10.040;2023-01-30T02:31:46;5.00;1.00
7564;DHT22;3823;53.586;10.040;2023-01-30T02:34:38;5.00;1.00
7564;DHT22;3823;53.586;10.040;2023-01-30T02:38:11;5.00;1.00
7564;DHT22;3823;53.586;10.040;2023-01-30T02:43:38;5.10;1.00
7564;DHT22;3823;53.586;10.040;2023-01-30T02:46:11;5.10;1.00
7564;DHT22;3823;53.586;10.040;2023-01-30T02:49:05;5.10;1.00
7564;DHT22;3823;53.586;10.040;2023-01-30T02:51:35;5.20;1.00
7564;DHT22;3823;53.586;10.040;2023-01-30T02:54:01;5.20;1.00
7564;DHT22;3823;53.586;10.040;2023-01-30T02:56:27;5.20;1.00
7564;DHT22;3823;53.586;10.040;2023-01-30T02:59:00;5.20;1.00
7564;DHT22;3823;53.586;10.040;2023-01-30T03:04:07;5.30;1.00
7564;DHT22;3823;53.586;10.040;2023-01-30T03:14:54;5.40;1.00
7564;DHT22;3823;53.586;10.040;2023-01-30T03:17:22;5.40;1.00
7564;DHT22;3823;53.586;10.040;2023-01-30T03:19:49;5.40;1.00
7564;DHT22;3823;53.586;10.040;2023-01-30T03:22:15;5.40;1.00
7564;DHT22;3823;53.586;10.040;2023-01-30T03:24:41;5.50;1.00
7564;DHT22;3823;53.586;10.040;2023-01-30T03:27:10;5.50;1.00
7564;DHT22;3823;53.586;10.040;2023-01-30T03:29:36;5.50;1.00
7564;DHT22;3823;53.586;10.040;2023-01-30T03:32:02;5.50;1.00
7564;DHT22;3823;53.586;10.040;2023-01-30T03:34:28;5.50;1.00
7564;DHT22;3823;53.586;10.040;2023-01-30T03:36:53;5.50;1.00
7564;DHT22;3823;53.586;10.040;2023-01-30T03:39:19;5.50;1.00
7564;DHT22;3823;53.586;10.040;2023-01-30T03:41:45;5.60;1.00
7564;DHT22;3823;53.586;10.040;2023-01-30T03:44:11;5.60;1.00
7564;DHT22;3823;53.586;10.040;2023-01-30T03:46:36;5.60;1.00
7564;DHT22;3823;53.586;10.040;2023-01-30T03:49:02;5.60;1.00
7564;DHT22;3823;53.586;10.040;2023-01-30T03:51:27;5.60;1.00
7564;DHT22;3823;53.586;10.040;2023-01-30T03:53:53;5.60;1.00
7564;DHT22;3823;53.586;10.040;2023-01-30T03:56:18;5.60;1.00
7564;DHT22;3823;53.586;10.040;2023-01-30T03:58:44;5.60;1.00
7564;DHT22;3823;53.586;10.040;2023-01-30T04:01:10;5.70;1.00
7564;DHT22;3823;53.586;10.040;2023-01-30T04:03:35;5.70;1.00
7564;DHT22;3823;53.586;10.040;2023-01-30T04:06:01;5.70;1.00
7564;DHT22;3823;53.586;10.040;2023-01-30T04:08:26;5.70;1.00
7564;DHT22;3823;53.586;10.040;2023-01-30T04:10:52;5.70;1.00
7564;DHT22;3823;53.586;10.040;2023-01-30T04:13:17;5.70;1.00
7564;DHT22;3823;53.586;10.040;2023-01-30T04:15:43;5.80;1.00
7564;DHT22;3823;53.586;10.040;2023-01-30T04:18:09;5.80;1.00
7564;DHT22;3823;53.586;10.040;2023-01-30T04:20:34;5.80;1.00
7564;DHT22;3823;53.586;10.040;2023-01-30T04:23:00;5.90;1.00
7564;DHT22;3823;53.586;10.040;2023-01-30T04:25:25;5.90;1.00
7564;DHT22;3823;53.586;10.040;2023-01-30T04:27:51;5.90;1.00
7564;DHT22;3823;53.586;10.040;2023-01-30T04:30:16;6.00;1.00
7564;DHT22;3823;53.586;10.040;2023-01-30T04:32:42;6.00;1.00
7564;DHT22;3823;53.586;10.040;2023-01-30T04:35:08;6.00;1.00
7564;DHT22;3823;53.586;10.040;2023-01-30T04:37:33;6.00;1.00
7564;DHT22;3823;53.586;10.040;2023-01-30T04:39:59;6.00;1.00
7564;DHT22;3823;53.586;10.040;2023-01-30T04:42:25;6.00;1.00
7564;DHT22;3823;53.586;10.040;2023-01-30T04:44:50;6.00;1.00
7564;DHT22;3823;53.586;10.040;2023-01-30T04:47:16;6.00;1.00
7564;DHT22;3823;53.586;10.040;2023-01-30T04:49:41;6.10;1.00
7564;DHT22;3823;53.586;10.040;2023-01-30T04:52:07;6.10;1.00
7564;DHT22;3823;53.586;10.040;2023-01-30T04:54:33;6.10;1.00
7564;DHT22;3823;53.586;10.040;2023-01-30T04:56:59;6.00;1.00
7564;DHT22;3823;53.586;10.040;2023-01-30T04:59:25;6.00;1.00
7564;DHT22;3823;53.586;10.040;2023-01-30T05:01:50;5.90;1.00
7564;DHT22;3823;53.586;10.040;2023-01-30T05:04:16;5.90;1.00
7564;DHT22;3823;53.586;10.040;2023-01-30T05:06:41;6.00;1.00
7564;DHT22;3823;53.586;10.040;2023-01-30T05:09:07;6.00;1.00
7564;DHT22;3823;53.586;10.040;2023-01-30T05:11:33;6.00;1.00
7564;DHT22;3823;53.586;10.040;2023-01-30T05:13:59;6.00;1.00
7564;DHT22;3823;53.586;10.040;2023-01-30T05:16:25;6.00;1.00
7564;DHT22;3823;53.586;10.040;2023-01-30T05:18:51;6.00;1.00
7564;DHT22;3823;53.586;10.040;2023-01-30T05:21:18;6.00;1.00
7564;DHT22;3823;53.586;10.040;2023-01-30T05:23:44;6.00;1.00
7564;DHT22;3823;53.586;10.040;2023-01-30T05:26:11;6.00;1.00
7564;DHT22;3823;53.586;10.040;2023-01-30T05:28:37;6.00;1.00
7564;DHT22;3823;53.586;10.040;2023-01-30T05:31:04;6.00;1.00
7564;DHT22;3823;53.586;10.040;2023-01-30T05:33:30;5.90;1.00
7564;DHT22;3823;53.586;10.040;2023-01-30T05:35:56;5.90;1.00
7564;DHT22;3823;53.586;10.040;2023-01-30T05:38:23;6.00;1.00
7564;DHT22;3823;53.586;10.040;2023-01-30T05:41:02;6.00;1.00
7564;DHT22;3823;53.586;10.040;2023-01-30T05:43:29;6.00;1.00
7564;DHT22;3823;53.586;10.040;2023-01-30T05:45:56;6.00;1.00
7564;DHT22;3823;53.586;10.040;2023-01-30T05:48:22;6.00;1.00
7564;DHT22;3823;53.586;10.040;2023-01-30T05:50:52;6.00;1.00
7564;DHT22;3823;53.586;10.040;2023-01-30T05:53:18;6.00;1.00
7564;DHT22;3823;53.586;10.040;2023-01-30T05:55:44;6.00;1.00
7564;DHT22;3823;53.586;10.040;2023-01-30T05:58:10;6.00;1.00
7564;DHT22;3823;53.586;10.040;2023-01-30T06:00:35;6.00;1.00
7564;DHT22;3823;53.586;10.040;2023-01-30T06:03:01;5.90;1.00
7564;DHT22;3823;53.586;10.040;2023-01-30T06:05:27;6.00;1.00
7564;DHT22;3823;53.586;10.040;2023-01-30T06:07:52;5.90;1.00
7564;DHT22;3823;53.586;10.040;2023-01-30T06:10:18;6.00;1.00
7564;DHT22;3823;53.586;10.040;2023-01-30T06:12:43;5.80;1.00
7564;DHT22;3823;53.586;10.040;2023-01-30T06:15:10;5.80;1.00
7564;DHT22;3823;53.586;10.040;2023-01-30T06:17:35;5.80;1.00
7564;DHT22;3823;53.586;10.040;2023-01-30T06:20:01;5.80;1.00
7564;DHT22;3823;53.586;10.040;2023-01-30T06:22:27;5.70;1.00
7564;DHT22;3823;53.586;10.040;2023-01-30T06:24:52;5.80;1.00
7564;DHT22;3823;53.586;10.040;2023-01-30T06:27:18;5.70;1.00
7564;DHT22;3823;53.586;10.040;2023-01-30T06:29:43;5.60;1.00
7564;DHT22;3823;53.586;10.040;2023-01-30T06:32:09;5.60;1.00
7564;DHT22;3823;53.586;10.040;2023-01-30T06:34:35;5.50;1.00
7564;DHT22;3823;53.586;10.040;2023-01-30T06:37:00;5.60;1.00
7564;DHT22;3823;53.586;10.040;2023-01-30T06:39:26;5.50;1.00
7564;DHT22;3823;53.586;10.040;2023-01-30T06:41:52;5.50;1.00
7564;DHT22;3823;53.586;10.040;2023-01-30T06:44:17;5.60;1.00
7564;DHT22;3823;53.586;10.040;2023-01-30T06:46:43;5.50;1.00
7564;DHT22;3823;53.586;10.040;2023-01-30T06:49:09;5.50;1.00
7564;DHT22;3823;53.586;10.040;2023-01-30T06:51:34;5.50;1.00
7564;DHT22;3823;53.586;10.040;2023-01-30T06:54:00;5.50;1.00
7564;DHT22;3823;53.586;10.040;2023-01-30T06:56:26;5.50;1.00
7564;DHT22;3823;53.586;10.040;2023-01-30T06:58:51;5.40;1.00
7564;DHT22;3823;53.586;10.040;2023-01-30T07:01:17;5.40;1.00
7564;DHT22;3823;53.586;10.040;2023-01-30T07:03:43;5.40;1.00
7564;DHT22;3823;53.586;10.040;2023-01-30T07:06:09;5.40;1.00
7564;DHT22;3823;53.586;10.040;2023-01-30T07:08:34;5.40;1.00
7564;DHT22;3823;53.586;10.040;2023-01-30T07:11:00;5.50;1.00
7564;DHT22;3823;53.586;10.040;2023-01-30T07:13:25;5.50;1.00
7564;DHT22;3823;53.586;10.040;2023-01-30T07:15:51;5.50;1.00
7564;DHT22;3823;53.586;10.040;2023-01-30T07:18:16;5.50;1.00
7564;DHT22;3823;53.586;10.040;2023-01-30T07:20:46;5.50;1.00
7564;DHT22;3823;53.586;10.040;2023-01-30T07:23:11;5.50;1.00
7564;DHT22;3823;53.586;10.040;2023-01-30T07:25:37;5.50;1.00
7564;DHT22;3823;53.586;10.040;2023-01-30T07:28:03;5.50;1.00
7564;DHT22;3823;53.586;10.040;2023-01-30T07:30:30;5.50;1.00
7564;DHT22;3823;53.586;10.040;2023-01-30T07:32:58;5.50;1.00
7564;DHT22;3823;53.586;10.040;2023-01-30T07:35:26;5.50;1.00
7564;DHT22;3823;53.586;10.040;2023-01-30T07:37:52;5.50;1.00
7564;DHT22;3823;53.586;10.040;2023-01-30T07:40:18;5.60;1.00
7564;DHT22;3823;53.586;10.040;2023-01-30T07:42:58;5.60;1.00
7564;DHT22;3823;53.586;10.040;2023-01-30T07:45:25;5.60;1.00
7564;DHT22;3823;53.586;10.040;2023-01-30T07:47:52;5.60;1.00
7564;DHT22;3823;53.586;10.040;2023-01-30T07:50:18;5.60;1.00
7564;DHT22;3823;53.586;10.040;2023-01-30T07:52:44;5.70;1.00
7564;DHT22;3823;53.586;10.040;2023-01-30T07:55:09;5.70;1.00
7564;DHT22;3823;53.586;10.040;2023-01-30T07:57:35;5.80;1.00
7564;DHT22;3823;53.586;10.040;2023-01-30T08:00:01;5.80;1.00
7564;DHT22;3823;53.586;10.040;2023-01-30T08:02:26;5.80;1.00
7564;DHT22;3823;53.586;10.040;2023-01-30T08:04:52;5.80;1.00
7564;DHT22;3823;53.586;10.040;2023-01-30T08:07:18;5.70;1.00
7564;DHT22;3823;53.586;10.040;2023-01-30T08:09:43;5.80;1.00
7564;DHT22;3823;53.586;10.040;2023-01-30T08:12:09;5.90;1.00
7564;DHT22;3823;53.586;10.040;2023-01-30T08:14:34;5.90;1.00
7564;DHT22;3823;53.586;10.040;2023-01-30T08:17:00;5.90;1.00
7564;DHT22;3823;53.586;10.040;2023-01-30T08:19:25;5.90;1.00
7564;DHT22;3823;53.586;10.040;2023-01-30T08:21:51;5.80;1.00
7564;DHT22;3823;53.586;10.040;2023-01-30T08:24:16;5.80;1.00
7564;DHT22;3823;53.586;10.040;2023-01-30T08:26:42;5.80;1.00
7564;DHT22;3823;53.586;10.040;2023-01-30T08:29:08;5.80;1.00
7564;DHT22;3823;53.586;10.040;2023-01-30T08:31:33;5.80;1.00
7564;DHT22;3823;53.586;10.040;2023-01-30T08:33:59;5.90;1.00
7564;DHT22;3823;53.586;10.040;2023-01-30T08:36:24;5.90;1.00
7564;DHT22;3823;53.586;10.040;2023-01-30T08:38:50;6.00;1.00
7564;DHT22;3823;53.586;10.040;2023-01-30T08:41:16;6.10;99.90
7564;DHT22;3823;53.586;10.040;2023-01-30T08:43:41;6.20;99.90
7564;DHT22;3823;53.586;10.040;2023-01-30T08:46:07;6.20;99.90
7564;DHT22;3823;53.586;10.040;2023-01-30T08:48:32;6.20;99.90
7564;DHT22;3823;53.586;10.040;2023-01-30T08:50:58;6.30;99.90
7564;DHT22;3823;53.586;10.040;2023-01-30T08:53:23;6.40;99.90
7564;DHT22;3823;53.586;10.040;2023-01-30T08:55:51;6.40;99.90
7564;DHT22;3823;53.586;10.040;2023-01-30T08:58:17;6.60;99.90
7564;DHT22;3823;53.586;10.040;2023-01-30T09:00:42;6.90;99.90
7564;DHT22;3823;53.586;10.040;2023-01-30T09:03:09;7.20;99.90
7564;DHT22;3823;53.586;10.040;2023-01-30T09:05:34;7.40;99.90
7564;DHT22;3823;53.586;10.040;2023-01-30T09:08:00;7.50;99.90
7564;DHT22;3823;53.586;10.040;2023-01-30T09:10:26;7.70;99.90
7564;DHT22;3823;53.586;10.040;2023-01-30T09:12:51;7.70;99.90
7564;DHT22;3823;53.586;10.040;2023-01-30T09:15:17;7.60;99.90
7564;DHT22;3823;53.586;10.040;2023-01-30T09:17:43;7.50;99.90
7564;DHT22;3823;53.586;10.040;2023-01-30T09:20:20;7.30;99.90
7564;DHT22;3823;53.586;10.040;2023-01-30T09:22:54;7.20;99.90
7564;DHT22;3823;53.586;10.040;2023-01-30T09:25:22;7.30;99.90
7564;DHT22;3823;53.586;10.040;2023-01-30T09:27:48;7.60;99.90
7564;DHT22;3823;53.586;10.040;2023-01-30T09:30:15;7.80;99.90
7564;DHT22;3823;53.586;10.040;2023-01-30T09:32:40;7.70;99.90
7564;DHT22;3823;53.586;10.040;2023-01-30T09:35:06;7.50;99.90
7564;DHT22;3823;53.586;10.040;2023-01-30T09:37:33;7.30;99.90
7564;DHT22;3823;53.586;10.040;2023-01-30T09:39:58;7.20;99.90
7564;DHT22;3823;53.586;10.040;2023-01-30T09:42:55;7.30;99.90
7564;DHT22;3823;53.586;10.040;2023-01-30T09:45:38;7.50;99.90
7564;DHT22;3823;53.586;10.040;2023-01-30T09:54:14;8.30;79.20
7564;DHT22;3823;53.586;10.040;2023-01-30T09:56:41;8.40;48.00
7564;DHT22;3823;53.586;10.040;2023-01-30T09:59:18;8.30;99.90
7564;DHT22;3823;53.586;10.040;2023-01-30T10:04:36;7.80;99.90
7564;DHT22;3823;53.586;10.040;2023-01-30T10:07:28;7.50;99.90
7564;DHT22;3823;53.586;10.040;2023-01-30T10:10:21;7.30;99.90
7564;DHT22;3823;53.586;10.040;2023-01-30T10:15:57;6.80;99.90
7564;DHT22;3823;53.586;10.040;2023-01-30T10:18:34;6.60;99.90
7564;DHT22;3823;53.586;10.040;2023-01-30T10:21:19;6.30;99.90
7564;DHT22;3823;53.586;10.040;2023-01-30T10:24:13;6.20;1.00
7564;DHT22;3823;53.586;10.040;2023-01-30T10:26:42;6.10;1.00
7564;DHT22;3823;53.586;10.040;2023-01-30T10:29:17;6.00;1.00
7564;DHT22;3823;53.586;10.040;2023-01-30T10:31:48;5.90;1.00
7564;DHT22;3823;53.586;10.040;2023-01-30T10:34:30;5.80;1.00
7564;DHT22;3823;53.586;10.040;2023-01-30T10:37:28;5.80;1.00
7564;DHT22;3823;53.586;10.040;2023-01-30T10:42:36;5.80;1.00
7564;DHT22;3823;53.586;10.040;2023-01-30T10:45:17;5.90;1.00
7564;DHT22;3823;53.586;10.040;2023-01-30T10:53:13;6.80;99.90
7564;DHT22;3823;53.586;10.040;2023-01-30T10:55:55;6.90;99.90
7564;DHT22;3823;53.586;10.040;2023-01-30T11:01:30;6.70;99.90
7564;DHT22;3823;53.586;10.040;2023-01-30T11:04:01;6.50;99.90
7564;DHT22;3823;53.586;10.040;2023-01-30T11:06:28;6.40;99.90
7564;DHT22;3823;53.586;10.040;2023-01-30T11:08:55;6.30;99.90
7564;DHT22;3823;53.586;10.040;2023-01-30T11:11:41;6.10;99.90
7564;DHT22;3823;53.586;10.040;2023-01-30T11:14:11;5.80;1.00
7564;DHT22;3823;53.586;10.040;2023-01-30T11:16:47;5.70;1.00
7564;DHT22;3823;53.586;10.040;2023-01-30T11:19:17;5.60;1.00
7564;DHT22;3823;53.586;10.040;2023-01-30T11:21:51;5.60;1.00
7564;DHT22;3823;53.586;10.040;2023-01-30T11:24:29;5.50;1.00
7564;DHT22;3823;53.586;10.040;2023-01-30T11:27:08;5.50;1.00
7564;DHT22;3823;53.586;10.040;2023-01-30T11:29:37;5.50;1.00
7564;DHT22;3823;53.586;10.040;2023-01-30T11:32:06;5.50;1.00
7564;DHT22;3823;53.586;10.040;2023-01-30T11:34:35;5.60;1.00
7564;DHT22;3823;53.586;10.040;2023-01-30T11:39:47;5.60;1.00
7564;DHT22;3823;53.586;10.040;2023-01-30T11:42:18;5.60;1.00
7564;DHT22;3823;53.586;10.040;2023-01-30T11:44:44;5.50;1.00
7564;DHT22;3823;53.586;10.040;2023-01-30T11:47:22;5.60;1.00
7564;DHT22;3823;53.586;10.040;2023-01-30T11:49:49;5.70;1.00
7564;DHT22;3823;53.586;10.040;2023-01-30T11:52:19;5.70;1.00
7564;DHT22;3823;53.586;10.040;2023-01-30T11:54:48;5.80;1.00
7564;DHT22;3823;53.586;10.040;2023-01-30T11:57:16;5.90;1.00
7564;DHT22;3823;53.586;10.040;2023-01-30T11:59:52;6.10;1.00
7564;DHT22;3823;53.586;10.040;2023-01-30T12:02:23;6.30;1.00
7564;DHT22;3823;53.586;10.040;2023-01-30T12:05:01;6.50;1.00
7564;DHT22;3823;53.586;10.040;2023-01-30T12:07:29;6.60;99.90
7564;DHT22;3823;53.586;10.040;2023-01-30T12:09:56;6.60;99.90
7564;DHT22;3823;53.586;10.040;2023-01-30T12:12:43;6.70;99.90
7564;DHT22;3823;53.586;10.040;2023-01-30T12:15:27;6.90;99.90
7564;DHT22;3823;53.586;10.040;2023-01-30T12:20:59;7.10;99.90
7564;DHT22;3823;53.586;10.040;2023-01-30T12:23:37;7.30;99.90
7564;DHT22;3823;53.586;10.040;2023-01-30T12:26:20;7.20;99.90
7564;DHT22;3823;53.586;10.040;2023-01-30T12:31:44;6.90;99.90
7564;DHT22;3823;53.586;10.040;2023-01-30T12:34:11;6.60;99.90
7564;DHT22;3823;53.586;10.040;2023-01-30T12:43:38;6.20;1.00
7564;DHT22;3823;53.586;10.040;2023-01-30T12:45:34;6.10;1.00
7564;DHT22;3823;53.586;10.040;2023-01-30T12:57:22;6.30;1.00
7564;DHT22;3823;53.586;10.040;2023-01-30T12:59:35;6.30;1.00
7564;DHT22;3823;53.586;10.040;2023-01-30T13:02:44;6.40;1.00
7564;DHT22;3823;53.586;10.040;2023-01-30T13:05:31;6.60;1.00
7564;DHT22;3823;53.586;10.040;2023-01-30T13:08:06;6.80;1.00
7564;DHT22;3823;53.586;10.040;2023-01-30T13:10:40;6.90;99.90
7564;DHT22;3823;53.586;10.040;2023-01-30T13:19:14;6.90;99.90
7564;DHT22;3823;53.586;10.040;2023-01-30T13:26:52;6.90;99.90
7564;DHT22;3823;53.586;10.040;2023-01-30T13:31:52;7.00;99.90
7564;DHT22;3823;53.586;10.040;2023-01-30T13:34:38;7.00;99.90
7564;DHT22;3823;53.586;10.040;2023-01-30T13:37:13;7.00;99.90
7564;DHT22;3823;53.586;10.040;2023-01-30T13:42:40;7.00;99.90
7564;DHT22;3823;53.586;10.040;2023-01-30T13:45:16;6.90;99.90
7564;DHT22;3823;53.586;10.040;2023-01-30T13:47:47;7.00;99.90
7564;DHT22;3823;53.586;10.040;2023-01-30T13:52:58;6.80;99.90
7564;DHT22;3823;53.586;10.040;2023-01-30T13:58:11;6.60;1.00
7564;DHT22;3823;53.586;10.040;2023-01-30T14:00:51;6.40;1.00
7564;DHT22;3823;53.586;10.040;2023-01-30T14:03:34;6.40;1.00
7564;DHT22;3823;53.586;10.040;2023-01-30T14:06:30;6.50;99.90
7564;DHT22;3823;53.586;10.040;2023-01-30T14:08:56;6.40;99.90
7564;DHT22;3823;53.586;10.040;2023-01-30T14:11:31;6.30;1.00
7564;DHT22;3823;53.586;10.040;2023-01-30T14:14:01;6.40;1.00
7564;DHT22;3823;53.586;10.040;2023-01-30T14:16:47;6.40;1.00
7564;DHT22;3823;53.586;10.040;2023-01-30T14:24:41;6.60;99.90
7564;DHT22;3823;53.586;10.040;2023-01-30T14:27:39;6.70;99.90
7564;DHT22;3823;53.586;10.040;2023-01-30T14:33:01;6.80;99.90
7564;DHT22;3823;53.586;10.040;2023-01-30T14:35:31;6.90;99.90
7564;DHT22;3823;53.586;10.040;2023-01-30T14:38:09;6.90;99.90
7564;DHT22;3823;53.586;10.040;2023-01-30T14:40:38;6.90;99.90
7564;DHT22;3823;53.586;10.040;2023-01-30T14:48:43;6.80;99.90
7564;DHT22;3823;53.586;10.040;2023-01-30T14:57:01;7.00;99.90
7564;DHT22;3823;53.586;10.040;2023-01-30T15:07:29;7.00;99.90
7564;DHT22;3823;53.586;10.040;2023-01-30T15:10:00;7.10;99.90
7564;DHT22;3823;53.586;10.040;2023-01-30T15:15:50;7.10;99.90
7564;DHT22;3823;53.586;10.040;2023-01-30T15:30:12;6.90;99.90
7564;DHT22;3823;53.586;10.040;2023-01-30T15:32:41;7.00;99.90
7564;DHT22;3823;53.586;10.040;2023-01-30T15:37:48;7.00;99.90
7564;DHT22;3823;53.586;10.040;2023-01-30T15:45:52;7.10;64.40
7564;DHT22;3823;53.586;10.040;2023-01-30T15:51:14;7.20;28.90
7564;DHT22;3823;53.586;10.040;2023-01-30T15:53:45;7.10;54.60
7564;DHT22;3823;53.586;10.040;2023-01-30T15:56:18;7.00;85.80
7564;DHT22;3823;53.586;10.040;2023-01-30T15:58:44;7.00;93.50
7564;DHT22;3823;53.586;10.040;2023-01-30T16:01:16;7.00;99.90
7564;DHT22;3823;53.586;10.040;2023-01-30T16:03:43;7.00;99.90
7564;DHT22;3823;53.586;10.040;2023-01-30T16:06:47;7.00;99.90
7564;DHT22;3823;53.586;10.040;2023-01-30T16:09:20;6.90;99.90
7564;DHT22;3823;53.586;10.040;2023-01-30T16:11:46;6.90;99.90
7564;DHT22;3823;53.586;10.040;2023-01-30T16:14:17;6.90;99.90
7564;DHT22;3823;53.586;10.040;2023-01-30T16:16:51;6.80;99.90
7564;DHT22;3823;53.586;10.040;2023-01-30T16:19:24;6.80;99.90
7564;DHT22;3823;53.586;10.040;2023-01-30T16:22:03;6.80;99.90
7564;DHT22;3823;53.586;10.040;2023-01-30T16:24:32;6.80;99.90
7564;DHT22;3823;53.586;10.040;2023-01-30T16:27:04;6.80;99.90
7564;DHT22;3823;53.586;10.040;2023-01-30T16:29:33;6.80;99.90
7564;DHT22;3823;53.586;10.040;2023-01-30T16:32:11;6.80;99.90
7564;DHT22;3823;53.586;10.040;2023-01-30T16:34:37;6.80;99.90
7564;DHT22;3823;53.586;10.040;2023-01-30T16:39:45;6.90;99.90
7564;DHT22;3823;53.586;10.040;2023-01-30T16:42:24;6.90;99.90
7564;DHT22;3823;53.586;10.040;2023-01-30T16:44:50;6.80;99.90
7564;DHT22;3823;53.586;10.040;2023-01-30T16:47:25;6.70;99.90
7564;DHT22;3823;53.586;10.040;2023-01-30T16:49:52;6.70;99.90
7564;DHT22;3823;53.586;10.040;2023-01-30T16:52:33;6.60;99.90
7564;DHT22;3823;53.586;10.040;2023-01-30T16:55:04;6.70;99.90
7564;DHT22;3823;53.586;10.040;2023-01-30T16:57:36;6.60;99.90
7564;DHT22;3823;53.586;10.040;2023-01-30T17:05:44;6.60;99.90
7564;DHT22;3823;53.586;10.040;2023-01-30T17:11:04;6.50;94.80
7564;DHT22;3823;53.586;10.040;2023-01-30T17:13:41;6.60;67.80
7564;DHT22;3823;53.586;10.040;2023-01-30T17:18:48;6.50;51.80
7564;DHT22;3823;53.586;10.040;2023-01-30T17:21:14;6.50;33.80
7564;DHT22;3823;53.586;10.040;2023-01-30T17:23:44;6.50;14.30
7564;DHT22;3823;53.586;10.040;2023-01-30T17:26:11;6.50;14.10
7564;DHT22;3823;53.586;10.040;2023-01-30T17:28:41;6.50;16.50
7564;DHT22;3823;53.586;10.040;2023-01-30T17:31:11;6.50;9.30
7564;DHT22;3823;53.586;10.040;2023-01-30T17:33:37;6.60;1.00
7564;DHT22;3823;53.586;10.040;2023-01-30T17:36:19;6.50;18.70
7564;DHT22;3823;53.586;10.040;2023-01-30T17:38:46;6.60;18.00
7564;DHT22;3823;53.586;10.040;2023-01-30T17:43:45;6.50;52.70
7564;DHT22;3823;53.586;10.040;2023-01-30T17:46:11;6.50;67.20
7564;DHT22;3823;53.586;10.040;2023-01-30T17:48:37;6.50;71.60
7564;DHT22;3823;53.586;10.040;2023-01-30T17:51:02;6.50;88.80
7564;DHT22;3823;53.586;10.040;2023-01-30T17:53:28;6.50;55.70
7564;DHT22;3823;53.586;10.040;2023-01-30T17:55:53;6.50;35.30
7564;DHT22;3823;53.586;10.040;2023-01-30T17:58:19;6.40;18.90
7564;DHT22;3823;53.586;10.040;2023-01-30T18:00:45;6.40;16.80
7564;DHT22;3823;53.586;10.040;2023-01-30T18:03:10;6.30;13.50
7564;DHT22;3823;53.586;10.040;2023-01-30T18:05:36;6.30;27.60
7564;DHT22;3823;53.586;10.040;2023-01-30T18:08:01;6.30;8.90
7564;DHT22;3823;53.586;10.040;2023-01-30T18:10:27;6.30;1.00
7564;DHT22;3823;53.586;10.040;2023-01-30T18:12:52;6.30;1.00
7564;DHT22;3823;53.586;10.040;2023-01-30T18:15:18;6.30;1.00
7564;DHT22;3823;53.586;10.040;2023-01-30T18:17:48;6.20;1.00
7564;DHT22;3823;53.586;10.040;2023-01-30T18:20:16;6.20;1.00
7564;DHT22;3823;53.586;10.040;2023-01-30T18:22:42;6.20;1.00
7564;DHT22;3823;53.586;10.040;2023-01-30T18:25:08;6.30;1.00
7564;DHT22;3823;53.586;10.040;2023-01-30T18:27:34;6.20;1.00
7564;DHT22;3823;53.586;10.040;2023-01-30T18:29:59;6.20;1.00
7564;DHT22;3823;53.586;10.040;2023-01-30T18:32:25;6.20;1.00
7564;DHT22;3823;53.586;10.040;2023-01-30T18:34:50;6.20;1.00
7564;DHT22;3823;53.586;10.040;2023-01-30T18:37:16;6.10;6.70
7564;DHT22;3823;53.586;10.040;2023-01-30T18:39:42;6.20;1.00
7564;DHT22;3823;53.586;10.040;2023-01-30T18:42:07;6.20;1.00
7564;DHT22;3823;53.586;10.040;2023-01-30T18:44:33;6.10;1.00
7564;DHT22;3823;53.586;10.040;2023-01-30T18:46:59;6.00;15.60
7564;DHT22;3823;53.586;10.040;2023-01-30T18:49:25;6.00;29.70
7564;DHT22;3823;53.586;10.040;2023-01-30T18:51:50;5.90;29.60
7564;DHT22;3823;53.586;10.040;2023-01-30T18:54:16;6.10;16.60
7564;DHT22;3823;53.586;10.040;2023-01-30T18:56:42;6.00;14.20
7564;DHT22;3823;53.586;10.040;2023-01-30T18:59:08;6.00;17.10
7564;DHT22;3823;53.586;10.040;2023-01-30T19:01:36;6.00;17.00
7564;DHT22;3823;53.586;10.040;2023-01-30T19:04:04;6.00;4.40
7564;DHT22;3823;53.586;10.040;2023-01-30T19:06:30;6.00;1.00
7564;DHT22;3823;53.586;10.040;2023-01-30T19:08:58;6.00;1.00